Time;durP1;ratioP1;P1;durP2;ratioP2;P2;SDS_P1;SDS_P2;PMS_P1;PMS_P2;Temp;Humidity;BMP_temperature;BMP_pressure;BME280_temperature;BME280_humidity;BME280_pressure;Samples;Min_cycle;Max_cycle;Signal;HPM_P1;HPM_P2
2022/11/11 00:03:33;;;;;;;7.60;3.75;;;1.10;99.90;;;;;;8270980;28;20048;-84
2022/11/11 00:07:34;;;;;;;7.38;3.97;;;1.00;99.90;;;;;;8276000;28;20083;-85
2022/11/11 00:11:36;;;;;;;7.22;4.20;;;0.90;99.90;;;;;;8290478;28;20027;-84
2022/11/11 00:15:40;;;;;;;8.85;3.90;;;1.10;99.90;;;;;;8295532;28;20100;-84
2022/11/11 00:28:49;;;;;;;5.50;3.15;;;0.70;99.90;;;;;;8289955;28;20473;-84
2022/11/11 00:32:50;;;;;;;7.20;3.67;;;0.70;99.90;;;;;;8262700;28;20026;-84
2022/11/11 00:36:50;;;;;;;5.38;3.75;;;0.60;99.90;;;;;;8269982;28;20538;-84
2022/11/11 00:40:51;;;;;;;5.75;3.47;;;0.60;99.90;;;;;;8294024;28;20030;-84
2022/11/11 00:44:51;;;;;;;4.63;3.28;;;0.50;99.90;;;;;;8267130;28;20133;-84
2022/11/11 00:53:13;;;;;;;18.23;3.50;;;0.60;99.90;;;;;;8284394;28;20040;-84
2022/11/11 00:57:13;;;;;;;11.25;4.18;;;0.50;99.90;;;;;;8279629;28;20120;-84
2022/11/11 01:01:29;;;;;;;6.18;3.85;;;0.40;99.90;;;;;;8258458;28;20425;-85
2022/11/11 01:05:30;;;;;;;7.03;3.80;;;0.40;99.90;;;;;;8270506;28;20074;-84
2022/11/11 01:09:30;;;;;;;5.28;3.38;;;0.40;99.90;;;;;;8261580;28;20023;-84
2022/11/11 01:13:32;;;;;;;6.50;3.22;;;0.40;99.90;;;;;;8270783;28;20034;-84
2022/11/11 01:17:32;;;;;;;4.75;2.97;;;0.40;99.90;;;;;;8290324;28;20022;-84
2022/11/11 01:21:33;;;;;;;7.10;3.55;;;0.40;99.90;;;;;;8286407;28;20049;-84
2022/11/11 01:25:34;;;;;;;3.97;2.85;;;0.30;99.90;;;;;;8295603;28;20022;-84
2022/11/11 01:29:35;;;;;;;6.53;3.45;;;0.40;99.90;;;;;;8276783;28;20505;-85
2022/11/11 01:33:36;;;;;;;9.73;3.67;;;0.30;99.90;;;;;;8268381;28;20030;-85
2022/11/11 01:37:36;;;;;;;8.73;2.83;;;0.20;99.90;;;;;;8271461;28;20030;-84
2022/11/11 01:41:37;;;;;;;4.07;2.75;;;0.10;99.90;;;;;;8282187;28;20121;-84
2022/11/11 01:46:14;;;;;;;6.75;3.45;;;0.10;99.90;;;;;;8286209;28;20061;-84
2022/11/11 01:50:15;;;;;;;8.68;3.08;;;0.00;99.90;;;;;;8296884;28;20019;-83
2022/11/11 01:54:52;;;;;;;8.30;3.53;;;0.00;99.90;;;;;;8290594;28;20084;-85
2022/11/11 01:58:56;;;;;;;6.80;3.38;;;0.00;99.90;;;;;;8283741;28;20030;-84
2022/11/11 02:03:02;;;;;;;7.07;3.38;;;-0.10;99.90;;;;;;8274550;28;20031;-84
2022/11/11 02:07:07;;;;;;;4.13;2.90;;;0.00;99.90;;;;;;8285041;28;20601;-84
2022/11/11 02:14:34;;;;;;;5.03;3.20;;;0.00;99.90;;;;;;8292960;28;20021;-84
2022/11/11 02:15:47;;;;;;;4.25;2.83;;;0.00;99.90;;;;;;8285525;28;20494;-84
2022/11/11 02:19:57;;;;;;;11.95;4.35;;;0.10;99.90;;;;;;8271418;28;20025;-84
2022/11/11 02:24:19;;;;;;;7.38;3.95;;;0.40;99.90;;;;;;8293923;28;20022;-84
2022/11/11 02:28:22;;;;;;;11.27;4.53;;;0.50;99.90;;;;;;8277601;28;20042;-84
2022/11/11 02:32:23;;;;;;;8.63;3.78;;;0.60;99.90;;;;;;8278676;28;20022;-84
2022/11/11 02:36:24;;;;;;;12.88;4.78;;;0.80;99.90;;;;;;8277817;28;20054;-84
2022/11/11 02:40:33;;;;;;;26.63;5.70;;;0.80;99.90;;;;;;8286614;28;20026;-84
2022/11/11 02:44:35;;;;;;;23.58;5.30;;;0.80;99.90;;;;;;8268802;28;20033;-84
2022/11/11 02:48:35;;;;;;;35.97;6.00;;;0.80;99.90;;;;;;8274543;28;20048;-81
2022/11/11 02:52:36;;;;;;;13.10;4.90;;;0.90;99.90;;;;;;8290573;28;20049;-84
2022/11/11 03:00:55;;;;;;;16.10;4.15;;;0.80;99.90;;;;;;8278170;28;20058;-83
2022/11/11 03:04:57;;;;;;;10.82;3.75;;;0.70;99.90;;;;;;8268939;28;20049;-84
2022/11/11 03:08:57;;;;;;;13.23;4.28;;;0.60;99.90;;;;;;8281058;28;20037;-84
2022/11/11 03:12:58;;;;;;;9.73;4.60;;;0.50;99.90;;;;;;8287372;28;20014;-84
2022/11/11 03:21:17;;;;;;;10.45;4.65;;;0.30;99.90;;;;;;8288434;28;20083;-84
2022/11/11 03:29:37;;;;;;;9.93;4.15;;;0.20;99.90;;;;;;8302079;28;20028;-84
2022/11/11 03:33:37;;;;;;;9.07;4.03;;;0.10;99.90;;;;;;8285110;28;20025;-84
2022/11/11 03:42:01;;;;;;;11.27;5.65;;;0.10;99.90;;;;;;8282328;28;20042;-84
2022/11/11 03:46:04;;;;;;;15.93;5.68;;;0.90;99.90;;;;;;8282466;28;20037;-84
2022/11/11 03:50:05;;;;;;;8.27;3.40;;;0.70;99.90;;;;;;8279563;28;20375;-84
2022/11/11 03:54:05;;;;;;;5.68;2.90;;;0.70;99.90;;;;;;8287447;28;20537;-84
2022/11/11 03:58:06;;;;;;;10.02;4.07;;;1.00;99.90;;;;;;8280002;28;20108;-83
2022/11/11 04:11:01;;;;;;;8.88;4.13;;;0.30;99.90;;;;;;8261979;28;20042;-83
2022/11/11 04:23:43;;;;;;;20.77;8.80;;;0.00;99.90;;;;;;8274062;28;20029;-83
2022/11/11 04:27:44;;;;;;;22.98;8.40;;;-0.20;99.90;;;;;;8281510;28;20399;-84
2022/11/11 04:36:04;;;;;;;10.38;4.78;;;0.10;99.90;;;;;;8297871;28;20164;-84
2022/11/11 04:48:47;;;;;;;5.22;3.42;;;0.10;99.90;;;;;;8289607;28;20036;-84
2022/11/11 04:52:48;;;;;;;14.45;4.10;;;-0.10;99.90;;;;;;8258646;28;20110;-84
2022/11/11 04:56:49;;;;;;;9.07;4.00;;;-0.10;99.90;;;;;;8262359;28;20403;-84
2022/11/11 05:00:50;;;;;;;5.85;3.33;;;-0.30;99.90;;;;;;8285862;28;20061;-83
2022/11/11 05:04:50;;;;;;;5.50;3.45;;;-0.40;99.90;;;;;;8276201;28;20065;-83
2022/11/11 05:08:57;;;;;;;7.72;3.88;;;-0.40;99.90;;;;;;8266987;28;20026;-83
2022/11/11 05:21:38;;;;;;;9.82;3.53;;;-0.50;99.90;;;;;;8272093;28;20109;-84
2022/11/11 05:25:39;;;;;;;9.98;3.95;;;-0.50;99.90;;;;;;8272506;28;20042;-83
2022/11/11 05:29:39;;;;;;;5.70;3.90;;;-0.50;99.90;;;;;;8264798;28;20026;-84
2022/11/11 05:33:40;;;;;;;7.88;4.03;;;-0.40;99.90;;;;;;8285713;28;20405;-84
2022/11/11 05:37:41;;;;;;;7.18;3.70;;;-0.40;99.90;;;;;;8291135;28;20413;-83
2022/11/11 05:41:42;;;;;;;8.05;4.30;;;-0.50;99.90;;;;;;8265188;28;20073;-83
2022/11/11 05:45:42;;;;;;;6.38;3.45;;;-0.40;99.90;;;;;;8286838;28;20026;-83
2022/11/11 05:49:43;;;;;;;7.65;3.72;;;-0.40;99.90;;;;;;8249883;28;20103;-83
2022/11/11 05:53:44;;;;;;;8.48;3.83;;;-0.20;99.90;;;;;;8277198;28;20391;-83
2022/11/11 05:57:44;;;;;;;8.48;3.85;;;0.10;99.90;;;;;;8278408;28;20034;-83
2022/11/11 06:01:45;;;;;;;5.13;3.47;;;-0.30;99.90;;;;;;8283399;28;20026;-84
2022/11/11 06:05:46;;;;;;;15.45;3.70;;;-0.40;99.90;;;;;;8303248;28;20045;-83
2022/11/11 06:09:46;;;;;;;6.90;3.88;;;-0.50;99.90;;;;;;8276753;28;20038;-83
2022/11/11 06:13:48;;;;;;;6.82;3.65;;;-0.60;99.90;;;;;;8279382;28;20026;-83
2022/11/11 06:17:48;;;;;;;5.35;3.28;;;-0.60;99.90;;;;;;8266450;28;20030;-84
2022/11/11 06:21:59;;;;;;;6.35;4.05;;;-0.50;99.90;;;;;;8262875;28;20058;-84
2022/11/11 06:26:11;;;;;;;5.57;3.45;;;-0.40;99.90;;;;;;8270695;28;20064;-84
2022/11/11 06:30:12;;;;;;;8.57;4.13;;;-0.30;99.90;;;;;;8277980;28;20030;-83
2022/11/11 06:34:13;;;;;;;6.53;3.65;;;-0.30;99.90;;;;;;8265214;28;20093;-84
2022/11/11 06:38:14;;;;;;;5.47;3.47;;;-0.10;99.90;;;;;;8266829;28;20563;-84
2022/11/11 06:42:14;;;;;;;7.65;2.83;;;-0.10;99.90;;;;;;8268067;28;20034;-84
2022/11/11 06:46:23;;;;;;;6.30;3.30;;;0.00;99.90;;;;;;8270044;28;20053;-84
2022/11/11 06:50:23;;;;;;;7.93;3.80;;;0.00;99.90;;;;;;8263795;28;20058;-85
2022/11/11 06:54:24;;;;;;;6.38;3.63;;;-0.10;99.90;;;;;;8277952;28;20081;-83
2022/11/11 06:58:24;;;;;;;6.88;4.38;;;0.00;99.90;;;;;;8270387;28;20026;-83
2022/11/11 07:02:25;;;;;;;7.22;3.50;;;0.10;99.90;;;;;;8274516;28;20027;-83
2022/11/11 07:06:25;;;;;;;5.50;3.17;;;0.10;99.90;;;;;;8270901;28;20090;-83
2022/11/11 07:10:26;;;;;;;10.32;3.95;;;0.20;99.90;;;;;;8271534;28;20490;-83
2022/11/11 07:14:26;;;;;;;11.20;3.97;;;0.40;99.90;;;;;;8277665;28;20019;-83
2022/11/11 07:18:27;;;;;;;14.07;4.43;;;0.50;99.90;;;;;;8242198;28;20030;-83
2022/11/11 07:22:28;;;;;;;21.83;4.40;;;0.50;99.90;;;;;;8267460;28;20570;-83
2022/11/11 07:26:28;;;;;;;24.48;4.40;;;0.60;99.90;;;;;;8272221;28;20029;-83
2022/11/11 07:30:29;;;;;;;7.55;3.95;;;0.70;99.90;;;;;;8264570;28;20044;-83
2022/11/11 07:34:29;;;;;;;7.18;4.07;;;1.00;99.90;;;;;;8272549;28;20034;-83
2022/11/11 07:38:30;;;;;;;10.98;4.78;;;1.20;99.90;;;;;;8270438;28;20493;-83
2022/11/11 07:42:30;;;;;;;8.45;4.25;;;1.40;99.90;;;;;;8269715;28;20019;-84
2022/11/11 07:46:31;;;;;;;8.25;3.92;;;1.50;99.90;;;;;;8272758;28;20042;-83
2022/11/11 07:50:31;;;;;;;8.05;3.97;;;1.80;99.90;;;;;;8270945;28;20041;-83
2022/11/11 07:54:32;;;;;;;10.23;4.22;;;2.00;99.90;;;;;;8279322;28;20023;-83
2022/11/11 07:58:32;;;;;;;8.02;3.97;;;2.30;99.90;;;;;;8276870;28;20442;-83
2022/11/11 08:02:33;;;;;;;10.13;4.70;;;2.70;99.90;;;;;;8266226;28;20023;-83
2022/11/11 08:06:34;;;;;;;7.18;4.47;;;2.70;99.90;;;;;;8284926;28;20494;-84
2022/11/11 08:10:35;;;;;;;11.68;4.32;;;3.10;99.90;;;;;;8272954;28;20104;-84
2022/11/11 08:14:36;;;;;;;9.70;4.70;;;3.30;99.90;;;;;;8279233;28;20454;-83
2022/11/11 08:18:37;;;;;;;14.00;4.78;;;3.40;99.90;;;;;;8273485;28;20022;-84
2022/11/11 08:22:38;;;;;;;22.15;4.43;;;3.40;99.90;;;;;;8268528;28;20494;-84
2022/11/11 08:26:39;;;;;;;13.43;5.30;;;3.70;99.90;;;;;;8270032;28;20550;-83
2022/11/11 08:30:39;;;;;;;9.00;6.18;;;4.00;99.90;;;;;;8264859;28;20042;-84
2022/11/11 08:34:40;;;;;;;8.98;5.22;;;4.10;99.90;;;;;;8281022;28;20065;-84
2022/11/11 08:38:40;;;;;;;17.98;5.97;;;4.30;99.90;;;;;;8263706;28;20479;-84
2022/11/11 08:42:41;;;;;;;11.00;5.85;;;4.40;99.90;;;;;;8262213;28;20026;-84
2022/11/11 08:46:41;;;;;;;11.95;6.95;;;4.40;99.90;;;;;;8263906;28;20031;-84
2022/11/11 08:50:42;;;;;;;12.48;6.30;;;4.60;99.90;;;;;;8267936;28;20282;-84
2022/11/11 08:54:43;;;;;;;13.40;6.45;;;4.60;99.90;;;;;;8268264;28;20026;-84
2022/11/11 08:58:43;;;;;;;10.93;6.10;;;4.70;99.90;;;;;;8261816;28;20014;-84
2022/11/11 09:02:44;;;;;;;15.98;7.43;;;5.20;99.90;;;;;;8268956;28;20027;-84
2022/11/11 09:06:46;;;;;;;21.25;8.57;;;5.10;99.90;;;;;;8281511;28;20511;-85
2022/11/11 09:10:46;;;;;;;16.48;9.02;;;5.10;99.90;;;;;;8280664;28;20025;-84
2022/11/11 09:14:48;;;;;;;25.45;10.38;;;5.30;99.90;;;;;;8274500;28;20069;-84
2022/11/11 09:18:49;;;;;;;21.08;10.35;;;5.50;99.90;;;;;;8256195;28;20039;-84
2022/11/11 09:22:50;;;;;;;17.63;10.15;;;5.40;99.90;;;;;;8246104;28;20117;-85
2022/11/11 09:26:51;;;;;;;15.77;8.65;;;5.60;99.90;;;;;;8245082;28;20019;-84
2022/11/11 09:30:52;;;;;;;18.13;8.98;;;6.10;99.90;;;;;;8259422;28;20034;-85
2022/11/11 09:34:54;;;;;;;16.65;10.23;;;6.40;99.90;;;;;;8279160;28;20060;-85
2022/11/11 09:38:54;;;;;;;19.80;9.95;;;6.70;99.90;;;;;;8269276;28;20118;-85
2022/11/11 09:43:10;;;;;;;17.20;9.50;;;7.00;99.90;;;;;;8272784;28;20021;-85
2022/11/11 09:47:46;;;;;;;18.58;10.38;;;7.20;99.90;;;;;;8280341;28;20498;-85
2022/11/11 09:52:03;;;;;;;20.15;11.25;;;7.50;99.90;;;;;;8245923;28;20038;-85
2022/11/11 09:56:11;;;;;;;19.90;11.20;;;7.70;99.90;;;;;;8271448;28;20104;-85
2022/11/11 10:00:20;;;;;;;19.13;10.82;;;7.90;99.90;;;;;;8275262;28;20033;-85
2022/11/11 10:04:48;;;;;;;18.97;11.13;;;7.90;99.90;;;;;;8267247;28;20034;-85
2022/11/11 10:09:01;;;;;;;18.65;10.65;;;8.20;99.90;;;;;;8259048;28;20426;-86
2022/11/11 10:13:02;;;;;;;18.08;10.02;;;8.40;99.90;;;;;;8271581;28;20501;-86
2022/11/11 10:17:25;;;;;;;17.83;10.10;;;8.50;99.90;;;;;;8264812;28;20486;-86
2022/11/11 10:21:34;;;;;;;18.40;10.98;;;8.50;99.90;;;;;;8271039;28;20099;-86
2022/11/11 10:25:36;;;;;;;19.17;10.23;;;8.60;99.90;;;;;;8277394;28;20030;-87
2022/11/11 10:29:44;;;;;;;16.13;9.27;;;8.70;99.90;;;;;;8283634;28;20025;-86
2022/11/11 10:34:08;;;;;;;18.58;10.13;;;8.80;99.90;;;;;;8255024;28;20022;-86
2022/11/11 10:38:36;;;;;;;16.27;9.65;;;8.60;99.90;;;;;;8259015;28;20451;-86
2022/11/11 10:42:37;;;;;;;19.63;10.20;;;8.70;99.90;;;;;;8262611;28;20034;-86
2022/11/11 10:46:48;;;;;;;19.27;10.20;;;8.90;99.90;;;;;;8277513;28;20034;-86
2022/11/11 10:50:58;;;;;;;18.67;10.23;;;9.20;99.90;;;;;;8265130;28;20022;-85
2022/11/11 10:55:11;;;;;;;15.98;9.63;;;9.30;99.90;;;;;;8264254;28;20046;-86
2022/11/11 10:59:23;;;;;;;18.75;10.57;;;9.40;99.90;;;;;;8274626;28;20030;-86
2022/11/11 11:03:31;;;;;;;18.08;9.85;;;9.30;99.90;;;;;;8262928;28;20022;-87
2022/11/11 11:07:40;;;;;;;17.15;9.52;;;9.70;99.90;;;;;;8262261;28;20052;-87
2022/11/11 11:11:48;;;;;;;14.88;9.20;;;9.70;99.90;;;;;;8297337;28;20030;-86
2022/11/11 11:16:01;;;;;;;18.30;9.55;;;9.70;99.90;;;;;;8261040;28;20035;-87
2022/11/11 11:20:12;;;;;;;16.55;9.63;;;9.60;99.90;;;;;;8274105;28;20172;-86
2022/11/11 11:24:22;;;;;;;13.82;8.13;;;9.90;99.90;;;;;;8281513;28;20027;-87
2022/11/11 11:28:23;;;;;;;15.05;9.02;;;10.10;99.90;;;;;;8267913;28;20038;-87
2022/11/11 11:32:29;;;;;;;15.00;8.40;;;10.10;99.90;;;;;;8268931;28;20173;-86
2022/11/11 11:36:30;;;;;;;16.73;9.75;;;10.60;99.90;;;;;;8249984;28;20023;-86
2022/11/11 11:40:52;;;;;;;17.90;9.90;;;10.60;99.90;;;;;;8260384;28;20061;-86
2022/11/11 11:44:52;;;;;;;18.25;9.80;;;10.70;99.90;;;;;;8257900;28;20450;-86
2022/11/11 11:49:02;;;;;;;14.27;8.65;;;11.20;99.90;;;;;;8282170;28;20124;-86
2022/11/11 11:53:46;;;;;;;15.27;8.63;;;11.20;99.90;;;;;;8287774;28;20046;-87
2022/11/11 11:57:56;;;;;;;15.80;8.88;;;11.20;99.90;;;;;;8250413;28;20053;-86
2022/11/11 12:02:19;;;;;;;16.17;9.18;;;11.50;99.90;;;;;;8273921;28;20464;-86
2022/11/11 12:06:38;;;;;;;14.52;8.90;;;11.60;99.90;;;;;;8282230;28;20053;-86
2022/11/11 12:10:48;;;;;;;17.00;10.90;;;11.50;99.90;;;;;;8268264;28;20097;-86
2022/11/11 12:15:16;;;;;;;14.88;9.43;;;11.60;99.90;;;;;;8270476;28;20150;-86
2022/11/11 12:19:32;;;;;;;14.57;8.40;;;11.60;99.90;;;;;;8267561;28;20379;-86
2022/11/11 12:23:55;;;;;;;15.95;9.27;;;11.80;99.90;;;;;;8278494;28;20083;-86
2022/11/11 12:28:08;;;;;;;15.40;9.38;;;12.00;99.90;;;;;;8286063;28;20065;-86
2022/11/11 12:32:17;;;;;;;15.30;8.82;;;12.10;99.90;;;;;;8264889;28;20058;-86
2022/11/11 12:36:42;;;;;;;14.37;8.83;;;12.20;99.90;;;;;;8265616;28;20034;-86
2022/11/11 12:41:07;;;;;;;14.38;8.32;;;12.20;99.90;;;;;;8261921;28;20398;-86
2022/11/11 12:45:18;;;;;;;15.10;8.20;;;12.20;99.90;;;;;;8270185;28;20298;-85
2022/11/11 12:49:37;;;;;;;14.63;8.27;;;11.80;99.90;;;;;;8267111;28;20030;-86
2022/11/11 12:54:00;;;;;;;15.35;8.57;;;11.70;99.90;;;;;;8269816;28;20034;-85
2022/11/11 12:58:20;;;;;;;15.43;9.10;;;11.40;99.90;;;;;;8265284;28;20042;-85
2022/11/11 13:02:46;;;;;;;12.13;7.53;;;10.90;99.90;;;;;;8265415;28;20526;-86
2022/11/11 13:07:25;;;;;;;18.23;9.45;;;10.50;99.90;;;;;;8269015;28;20066;-85
2022/11/11 13:11:42;;;;;;;15.05;9.35;;;10.40;99.90;;;;;;8263236;28;20030;-86
2022/11/11 13:15:43;;;;;;;17.13;9.25;;;10.90;99.90;;;;;;8269968;28;20023;-86
2022/11/11 13:19:53;;;;;;;18.38;10.20;;;11.10;99.90;;;;;;8290302;28;20429;-85
2022/11/11 13:23:54;;;;;;;15.52;9.38;;;11.30;99.90;;;;;;8280270;28;20383;-86
2022/11/11 13:28:05;;;;;;;15.88;8.25;;;11.70;99.90;;;;;;8273021;28;20026;-86
2022/11/11 13:32:10;;;;;;;16.25;9.82;;;11.60;99.90;;;;;;8272603;28;20018;-86
2022/11/11 13:36:15;;;;;;;16.02;9.00;;;11.60;99.90;;;;;;8257534;28;20035;-86
2022/11/11 13:40:33;;;;;;;15.65;9.90;;;11.70;99.90;;;;;;8241382;28;20048;-85
2022/11/11 13:44:45;;;;;;;15.05;9.73;;;11.60;99.90;;;;;;8251682;28;20023;-86
2022/11/11 13:48:48;;;;;;;17.55;10.48;;;11.50;99.90;;;;;;8253365;28;20026;-86
2022/11/11 13:52:57;;;;;;;16.83;9.73;;;11.50;99.90;;;;;;8279351;28;20117;-86
2022/11/11 13:57:12;;;;;;;17.75;9.30;;;11.80;99.90;;;;;;8263715;28;20060;-86
2022/11/11 14:01:14;;;;;;;16.00;9.57;;;11.70;99.90;;;;;;8275229;28;20394;-85
2022/11/11 14:05:17;;;;;;;17.10;9.60;;;11.80;99.90;;;;;;8273425;28;20042;-86
2022/11/11 14:10:05;;;;;;;14.90;8.60;;;11.50;99.90;;;;;;8268116;28;20060;-85
2022/11/11 14:14:30;;;;;;;15.52;9.30;;;11.30;99.90;;;;;;8270865;28;20025;-85
2022/11/11 14:18:37;;;;;;;16.33;9.98;;;11.40;99.90;;;;;;8264509;28;20037;-85
2022/11/11 14:22:38;;;;;;;17.13;9.85;;;11.30;99.90;;;;;;8271551;28;20032;-85
2022/11/11 14:26:38;;;;;;;14.25;8.40;;;11.40;99.90;;;;;;8270408;28;20026;-85
2022/11/11 14:30:39;;;;;;;14.40;9.18;;;11.20;99.90;;;;;;8275337;28;20030;-85
2022/11/11 14:34:48;;;;;;;17.33;9.48;;;11.50;99.90;;;;;;8267449;28;20128;-85
2022/11/11 14:39:07;;;;;;;19.00;9.98;;;11.20;99.90;;;;;;8261091;28;20049;-86
2022/11/11 14:43:37;;;;;;;16.33;9.18;;;10.70;99.90;;;;;;8264388;28;20064;-85
2022/11/11 14:47:39;;;;;;;16.05;10.02;;;10.60;99.90;;;;;;8283265;28;20030;-85
2022/11/11 14:51:53;;;;;;;19.20;9.85;;;10.30;99.90;;;;;;8276668;28;20030;-86
2022/11/11 14:55:55;;;;;;;18.42;10.15;;;10.10;99.90;;;;;;8281111;28;20585;-86
2022/11/11 14:59:56;;;;;;;20.33;10.68;;;10.00;99.90;;;;;;8259578;28;20030;-86
2022/11/11 15:04:01;;;;;;;21.27;10.48;;;9.60;99.90;;;;;;8273258;28;20029;-85
2022/11/11 15:08:05;;;;;;;20.00;11.68;;;9.30;99.90;;;;;;8273188;28;20029;-86
2022/11/11 15:12:32;;;;;;;19.50;11.43;;;9.20;99.90;;;;;;8274807;28;20210;-86
2022/11/11 15:16:40;;;;;;;17.98;10.82;;;9.30;99.90;;;;;;8254968;28;20034;-86
2022/11/11 15:21:04;;;;;;;20.17;10.43;;;9.20;99.90;;;;;;8273291;28;20034;-86
2022/11/11 15:25:27;;;;;;;17.30;10.45;;;9.30;99.90;;;;;;8275626;28;20172;-86
2022/11/11 15:29:40;;;;;;;19.63;11.48;;;9.20;99.90;;;;;;8282216;28;20495;-85
2022/11/11 15:33:50;;;;;;;20.00;11.52;;;9.10;99.90;;;;;;8268397;28;20470;-85
2022/11/11 15:37:57;;;;;;;21.27;11.57;;;9.10;99.90;;;;;;8269359;28;20092;-85
2022/11/11 15:41:57;;;;;;;21.98;10.20;;;9.10;99.90;;;;;;8261111;28;20034;-85
2022/11/11 15:46:01;;;;;;;21.45;10.88;;;9.10;99.90;;;;;;8248093;28;20033;-86
2022/11/11 15:50:02;;;;;;;21.15;11.43;;;8.80;99.90;;;;;;8275257;28;20033;-86
2022/11/11 15:54:18;;;;;;;20.08;11.05;;;8.90;99.90;;;;;;8268587;28;20021;-86
2022/11/11 15:58:30;;;;;;;19.90;11.68;;;9.10;99.90;;;;;;8280224;28;20050;-86
2022/11/11 16:02:34;;;;;;;26.77;12.43;;;8.90;99.90;;;;;;8271095;28;20084;-86
2022/11/11 16:06:37;;;;;;;22.25;11.98;;;8.70;99.90;;;;;;8266790;28;20073;-86
2022/11/11 16:10:58;;;;;;;20.77;11.48;;;8.50;99.90;;;;;;8283729;28;20026;-86
2022/11/11 16:15:06;;;;;;;19.58;11.40;;;8.60;99.90;;;;;;8270551;28;20497;-86
2022/11/11 16:19:34;;;;;;;21.33;12.07;;;8.70;99.90;;;;;;8279048;28;20048;-86
2022/11/11 16:23:37;;;;;;;21.55;11.85;;;8.60;99.90;;;;;;8271371;28;20026;-86
2022/11/11 16:27:37;;;;;;;22.88;12.00;;;8.60;99.90;;;;;;8281832;28;20108;-85
2022/11/11 16:31:40;;;;;;;22.25;11.50;;;8.60;99.90;;;;;;8283250;28;20026;-86
2022/11/11 16:35:41;;;;;;;22.23;11.68;;;8.60;99.90;;;;;;8263033;28;20218;-86
2022/11/11 16:39:42;;;;;;;24.23;12.45;;;8.50;99.90;;;;;;8274906;28;20072;-86
2022/11/11 16:43:43;;;;;;;23.75;12.48;;;8.80;99.90;;;;;;8259973;28;20030;-86
2022/11/11 16:47:46;;;;;;;25.30;12.25;;;8.50;99.90;;;;;;8283436;28;20038;-86
2022/11/11 16:51:48;;;;;;;22.70;12.07;;;8.60;99.90;;;;;;8265569;28;20097;-85
2022/11/11 16:55:49;;;;;;;23.55;11.73;;;8.60;99.90;;;;;;8279521;28;20157;-85
2022/11/11 16:59:53;;;;;;;22.63;12.65;;;8.40;99.90;;;;;;8263984;28;20046;-86
2022/11/11 17:03:58;;;;;;;28.65;13.13;;;8.40;99.90;;;;;;8285605;28;20540;-86
2022/11/11 17:07:59;;;;;;;20.00;10.52;;;8.30;99.90;;;;;;8286328;28;20022;-86
2022/11/11 17:12:00;;;;;;;26.63;12.75;;;8.10;99.90;;;;;;8258166;28;20062;-86
2022/11/11 17:16:07;;;;;;;27.17;13.30;;;7.90;99.90;;;;;;8266961;28;20089;-86
2022/11/11 17:20:13;;;;;;;31.02;12.50;;;7.90;99.90;;;;;;8269480;28;20041;-86
2022/11/11 17:24:14;;;;;;;49.00;12.25;;;7.80;99.90;;;;;;8270377;28;20039;-85
2022/11/11 17:28:14;;;;;;;41.35;12.07;;;7.80;99.90;;;;;;8263071;28;20474;-86
2022/11/11 17:32:15;;;;;;;36.25;11.93;;;7.80;99.90;;;;;;8283153;23;20056;-86
2022/11/11 17:36:16;;;;;;;25.90;11.82;;;7.90;99.90;;;;;;8299251;28;20029;-86
2022/11/11 17:40:16;;;;;;;29.08;10.65;;;7.90;99.90;;;;;;8297157;28;20033;-86
2022/11/11 17:44:17;;;;;;;31.08;11.65;;;7.80;99.90;;;;;;8305005;28;20118;-86
2022/11/11 17:48:18;;;;;;;22.98;11.38;;;7.70;99.90;;;;;;8297828;28;20414;-86
2022/11/11 17:52:18;;;;;;;24.73;12.30;;;7.60;99.90;;;;;;8295177;28;20398;-86
2022/11/11 17:56:19;;;;;;;40.65;11.05;;;7.80;99.90;;;;;;8300942;28;20076;-86
2022/11/11 18:00:20;;;;;;;19.85;10.63;;;7.70;99.90;;;;;;8312187;28;20100;-86
2022/11/11 18:04:20;;;;;;;24.42;9.90;;;7.80;99.90;;;;;;8313963;28;20033;-86
2022/11/11 18:08:21;;;;;;;34.53;10.48;;;7.50;99.90;;;;;;8303218;28;20040;-86
2022/11/11 18:12:37;;;;;;;29.88;13.15;;;7.40;99.90;;;;;;8298396;28;20482;-86
2022/11/11 18:16:37;;;;;;;49.97;12.60;;;7.40;99.90;;;;;;8295943;28;20026;-87
2022/11/11 18:20:38;;;;;;;43.10;11.55;;;7.50;99.90;;;;;;8295915;28;20033;-86
2022/11/11 18:24:38;;;;;;;38.00;11.07;;;7.70;99.90;;;;;;8315599;28;20121;-85
2022/11/11 18:28:39;;;;;;;52.00;9.98;;;7.80;99.90;;;;;;8313599;28;20034;-86
2022/11/11 18:32:39;;;;;;;75.30;10.85;;;8.10;99.90;;;;;;8298663;28;20032;-86
2022/11/11 18:36:40;;;;;;;159.75;12.40;;;7.80;99.90;;;;;;8308538;28;20069;-86
2022/11/11 18:40:41;;;;;;;81.55;11.07;;;7.50;99.90;;;;;;8304712;28;20533;-87
2022/11/11 18:44:41;;;;;;;52.33;9.30;;;7.50;99.90;;;;;;8302046;28;20029;-86
2022/11/11 18:48:42;;;;;;;57.38;9.25;;;7.50;99.90;;;;;;8292862;28;20093;-86
2022/11/11 18:52:43;;;;;;;84.82;10.13;;;7.50;99.90;;;;;;8306356;28;20398;-86
2022/11/11 18:56:43;;;;;;;68.90;9.40;;;7.70;99.90;;;;;;8299995;28;20034;-86
2022/11/11 19:00:44;;;;;;;99.50;10.63;;;7.30;99.90;;;;;;8318862;28;20036;-86
2022/11/11 19:04:44;;;;;;;92.80;10.07;;;7.20;99.90;;;;;;8319249;28;20026;-86
2022/11/11 19:08:46;;;;;;;64.47;10.32;;;7.20;99.90;;;;;;8303286;28;20026;-85
2022/11/11 19:12:47;;;;;;;127.50;10.70;;;7.40;99.90;;;;;;8302561;28;20101;-86
2022/11/11 19:16:47;;;;;;;52.55;9.15;;;7.50;99.90;;;;;;8292386;28;20533;-85
2022/11/11 19:20:48;;;;;;;68.28;9.60;;;7.60;99.90;;;;;;8295219;28;20502;-86
2022/11/11 19:24:49;;;;;;;59.97;9.00;;;7.50;99.90;;;;;;8319661;28;20030;-85
2022/11/11 19:28:49;;;;;;;57.05;9.13;;;7.60;99.90;;;;;;8314758;28;20113;-85
2022/11/11 19:32:50;;;;;;;59.55;9.80;;;7.50;99.90;;;;;;8308509;28;20502;-86
2022/11/11 19:36:50;;;;;;;55.38;8.32;;;7.40;99.90;;;;;;8323309;28;20486;-85
2022/11/11 19:40:51;;;;;;;35.00;8.13;;;7.30;99.90;;;;;;8312178;28;20048;-86
2022/11/11 19:44:51;;;;;;;49.55;9.32;;;7.10;99.90;;;;;;8322293;28;20029;-86
2022/11/11 19:48:54;;;;;;;45.95;9.13;;;7.10;99.90;;;;;;8329895;28;20454;-86
2022/11/11 19:52:55;;;;;;;36.20;8.02;;;7.00;99.90;;;;;;8309502;28;20505;-85
2022/11/11 19:56:55;;;;;;;86.43;10.05;;;7.10;99.90;;;;;;8321590;28;20018;-85
2022/11/11 20:00:56;;;;;;;92.63;10.38;;;7.10;99.90;;;;;;8320002;28;20041;-86
2022/11/11 20:04:56;;;;;;;59.17;9.45;;;7.10;99.90;;;;;;8325412;28;20030;-86
2022/11/11 20:09:00;;;;;;;39.60;8.80;;;7.10;99.90;;;;;;8321559;28;20022;-86
2022/11/11 20:13:00;;;;;;;49.83;9.43;;;7.00;99.90;;;;;;8318489;28;20025;-86
2022/11/11 20:17:01;;;;;;;33.42;8.07;;;6.90;99.90;;;;;;8312996;28;20051;-86
2022/11/11 20:21:03;;;;;;;32.95;7.88;;;7.00;99.90;;;;;;8312527;28;20087;-86
2022/11/11 20:25:04;;;;;;;83.78;9.65;;;7.20;99.90;;;;;;8316998;28;20029;-85
2022/11/11 20:29:05;;;;;;;44.53;9.27;;;7.10;99.90;;;;;;8321748;28;20112;-85
2022/11/11 20:33:05;;;;;;;87.95;10.18;;;7.00;99.90;;;;;;8318086;28;20386;-85
2022/11/11 20:37:06;;;;;;;90.95;9.75;;;7.00;99.90;;;;;;8316446;28;20034;-85
2022/11/11 20:41:11;;;;;;;87.35;9.23;;;6.90;99.90;;;;;;8300038;28;20497;-85
2022/11/11 20:45:12;;;;;;;52.45;9.10;;;6.90;99.90;;;;;;8328891;28;20034;-85
2022/11/11 20:49:13;;;;;;;48.10;9.30;;;6.80;99.90;;;;;;8324979;28;20390;-85
2022/11/11 20:53:13;;;;;;;85.63;9.93;;;6.80;99.90;;;;;;8319855;28;20107;-85
2022/11/11 20:57:15;;;;;;;68.95;10.38;;;7.00;99.90;;;;;;8314683;28;20026;-85
2022/11/11 21:01:18;;;;;;;71.22;9.75;;;7.00;99.90;;;;;;8308973;28;20032;-85
2022/11/11 21:05:18;;;;;;;65.80;9.82;;;6.80;99.90;;;;;;8312011;28;20029;-85
2022/11/11 21:09:19;;;;;;;38.03;9.48;;;6.70;99.90;;;;;;8304987;28;20049;-85
2022/11/11 21:13:29;;;;;;;69.82;10.60;;;6.80;99.90;;;;;;8300740;28;20022;-85
2022/11/11 21:17:30;;;;;;;59.67;9.20;;;6.90;99.90;;;;;;8308154;28;20030;-84
2022/11/11 21:21:49;;;;;;;96.18;10.13;;;6.70;99.90;;;;;;8305901;28;20108;-85
2022/11/11 21:26:04;;;;;;;91.50;10.45;;;6.60;99.90;;;;;;8311106;28;20054;-84
2022/11/11 21:30:05;;;;;;;57.42;8.98;;;6.80;99.90;;;;;;8316105;28;20025;-84
2022/11/11 21:34:21;;;;;;;104.95;9.55;;;6.70;99.90;;;;;;8301487;28;20442;-85
2022/11/11 21:38:27;;;;;;;56.50;10.50;;;6.70;99.90;;;;;;8297011;28;20064;-85
2022/11/11 21:42:28;;;;;;;71.55;9.20;;;6.90;99.90;;;;;;8322034;28;20029;-85
2022/11/11 21:46:32;;;;;;;56.15;8.85;;;7.00;99.90;;;;;;8299562;28;20029;-85
2022/11/11 21:50:42;;;;;;;78.50;10.10;;;6.70;99.90;;;;;;8294908;28;20514;-85
2022/11/11 21:54:51;;;;;;;58.05;9.35;;;6.60;99.90;;;;;;8306820;28;20025;-85
2022/11/11 22:03:14;;;;;;;53.17;9.38;;;6.40;99.90;;;;;;8314594;28;20366;-84
2022/11/11 22:07:14;;;;;;;45.95;10.75;;;6.60;99.90;;;;;;8318605;28;20030;-83
2022/11/11 22:11:27;;;;;;;55.92;8.18;;;6.80;99.90;;;;;;8315926;28;20505;-83
2022/11/11 22:15:27;;;;;;;39.42;9.18;;;6.60;99.90;;;;;;8314150;28;20068;-83
2022/11/11 22:19:30;;;;;;;9.00;6.65;;;6.70;99.90;;;;;;8315175;28;20030;-83
2022/11/11 22:23:31;;;;;;;28.40;7.70;;;6.70;99.90;;;;;;8311671;28;20076;-83
2022/11/11 22:27:31;;;;;;;68.28;8.60;;;6.60;99.90;;;;;;8318502;28;20026;-84